Overview Statistics Trail Chart Weather Telemetry Raw packets
 

This is the latest recevied weather packets stored in our database for station/object EA4URC-10. If no packets are shown the sender has not sent any weather packets the latest 10 day(s).

<< 5 6 7 8 9 10 11 >>
Time Temp. Humidity Pressure Rain* Wind** Luminosity Snow
1788314997 18.33° C 100% 1038.4 hPa - - - -
1788313197 18.33° C 100% 1038.5 hPa - - - -
1788311396 18.89° C 100% 1038.6 hPa - - - -
1788309596 18.89° C 100% 1038.5 hPa - - - -
1788307798 19.44° C 97% 1038.5 hPa - - - -
1788305994 20° C 91% 1038.6 hPa - - - -
1788304194 20° C 85% 1038.6 hPa - - - -
1788302393 20.56° C 82% 1038.4 hPa - - - -
1788300689 21.11° C 83% 1038.4 hPa - - - -
1788300593 21.11° C 83% 1038.4 hPa - - - -
1788298793 21.11° C 76% 1038.3 hPa - - - -
1788297023 21.67° C 69% 1038.1 hPa - - - -
1788296992 21.67° C 69% 1038.1 hPa - - - -
1788295198 21.11° C 78% 1038.1 hPa - - - -
1788293397 21.67° C 72% 1037.7 hPa - - - -
1788291597 22.78° C 51% 1037.4 hPa - - - -
1788289796 23.33° C 38% 1037 hPa - - - -
1788287995 23.33° C 37% 1036.8 hPa - - - -
1788286249 25° C 34% 1036.8 hPa - - - -
1788286195 25° C 34% 1036.8 hPa - - - -
1788284394 28.33° C 28% 1036.7 hPa - - - -
1788282675 28.33° C 27% 1036.6 hPa - - - -
1788282593 28.33° C 27% 1036.6 hPa - - - -
1788280793 27.78° C 28% 1036.6 hPa - - - -
1788278992 28.33° C 26% 1036.6 hPa - - - -

* Rain since midnight (hover to see other rain measurements)
** Current wind speed in m/s (hover to see current wind gust speed)